sensor_id;sensor_type;location;lat;lon;timestamp;P1;durP1;ratioP1;P2;durP2;ratioP2
47599;SDS011;33323;52.124;6.018;2023-07-16T00:00:15;4.95;;;1.90;;
47599;SDS011;33323;52.124;6.018;2023-07-16T00:02:48;8.98;;;2.05;;
47599;SDS011;33323;52.124;6.018;2023-07-16T00:05:15;6.20;;;1.50;;
47599;SDS011;33323;52.124;6.018;2023-07-16T00:07:42;5.93;;;1.98;;
47599;SDS011;33323;52.124;6.018;2023-07-16T00:10:09;4.32;;;2.13;;
47599;SDS011;33323;52.124;6.018;2023-07-16T00:12:37;6.03;;;1.83;;
47599;SDS011;33323;52.124;6.018;2023-07-16T00:15:04;4.70;;;2.55;;
47599;SDS011;33323;52.124;6.018;2023-07-16T00:17:33;6.85;;;1.85;;
47599;SDS011;33323;52.124;6.018;2023-07-16T00:20:01;8.68;;;2.00;;
47599;SDS011;33323;52.124;6.018;2023-07-16T00:22:29;6.13;;;1.45;;
47599;SDS011;33323;52.124;6.018;2023-07-16T00:24:56;7.40;;;1.50;;
47599;SDS011;33323;52.124;6.018;2023-07-16T00:27:23;6.50;;;1.58;;
47599;SDS011;33323;52.124;6.018;2023-07-16T00:29:50;6.00;;;1.88;;
47599;SDS011;33323;52.124;6.018;2023-07-16T00:32:17;8.32;;;2.20;;
47599;SDS011;33323;52.124;6.018;2023-07-16T00:34:44;5.13;;;1.27;;
47599;SDS011;33323;52.124;6.018;2023-07-16T00:37:11;5.72;;;1.50;;
47599;SDS011;33323;52.124;6.018;2023-07-16T00:39:39;4.93;;;1.30;;
47599;SDS011;33323;52.124;6.018;2023-07-16T00:42:06;4.55;;;1.52;;
47599;SDS011;33323;52.124;6.018;2023-07-16T00:44:33;5.85;;;1.98;;
47599;SDS011;33323;52.124;6.018;2023-07-16T00:47:00;6.15;;;1.63;;
47599;SDS011;33323;52.124;6.018;2023-07-16T00:49:27;8.32;;;2.35;;
47599;SDS011;33323;52.124;6.018;2023-07-16T00:51:55;4.82;;;1.65;;
47599;SDS011;33323;52.124;6.018;2023-07-16T00:54:23;10.40;;;1.67;;
47599;SDS011;33323;52.124;6.018;2023-07-16T00:56:50;6.35;;;1.27;;
47599;SDS011;33323;52.124;6.018;2023-07-16T00:59:17;8.00;;;1.75;;
47599;SDS011;33323;52.124;6.018;2023-07-16T01:01:44;5.32;;;2.17;;
47599;SDS011;33323;52.124;6.018;2023-07-16T01:04:12;5.03;;;1.73;;
47599;SDS011;33323;52.124;6.018;2023-07-16T01:06:41;3.53;;;2.13;;
47599;SDS011;33323;52.124;6.018;2023-07-16T01:09:15;3.95;;;1.73;;
47599;SDS011;33323;52.124;6.018;2023-07-16T01:11:45;4.30;;;1.50;;
47599;SDS011;33323;52.124;6.018;2023-07-16T01:14:13;10.05;;;2.03;;
47599;SDS011;33323;52.124;6.018;2023-07-16T01:16:43;4.03;;;1.60;;
47599;SDS011;33323;52.124;6.018;2023-07-16T01:19:11;5.82;;;1.98;;
47599;SDS011;33323;52.124;6.018;2023-07-16T01:30:31;6.50;;;2.00;;
47599;SDS011;33323;52.124;6.018;2023-07-16T01:32:58;8.00;;;2.15;;
47599;SDS011;33323;52.124;6.018;2023-07-16T01:35:29;6.43;;;2.63;;
47599;SDS011;33323;52.124;6.018;2023-07-16T01:37:56;12.40;;;2.83;;
47599;SDS011;33323;52.124;6.018;2023-07-16T01:40:23;5.32;;;2.00;;
47599;SDS011;33323;52.124;6.018;2023-07-16T01:42:50;4.32;;;2.00;;
47599;SDS011;33323;52.124;6.018;2023-07-16T01:45:18;6.03;;;1.83;;
47599;SDS011;33323;52.124;6.018;2023-07-16T01:47:50;5.20;;;1.90;;
47599;SDS011;33323;52.124;6.018;2023-07-16T01:50:37;6.50;;;2.17;;
47599;SDS011;33323;52.124;6.018;2023-07-16T01:53:04;5.57;;;2.40;;
47599;SDS011;33323;52.124;6.018;2023-07-16T01:55:31;7.35;;;2.67;;
47599;SDS011;33323;52.124;6.018;2023-07-16T01:57:58;6.47;;;2.33;;
47599;SDS011;33323;52.124;6.018;2023-07-16T02:00:25;5.10;;;1.98;;
47599;SDS011;33323;52.124;6.018;2023-07-16T02:02:52;13.10;;;2.05;;
47599;SDS011;33323;52.124;6.018;2023-07-16T02:05:19;4.28;;;2.10;;
47599;SDS011;33323;52.124;6.018;2023-07-16T02:07:46;6.30;;;1.63;;
47599;SDS011;33323;52.124;6.018;2023-07-16T02:10:13;6.10;;;1.83;;
47599;SDS011;33323;52.124;6.018;2023-07-16T02:12:40;5.15;;;1.85;;
47599;SDS011;33323;52.124;6.018;2023-07-16T02:15:08;2.83;;;1.40;;
47599;SDS011;33323;52.124;6.018;2023-07-16T02:17:36;11.73;;;2.47;;
47599;SDS011;33323;52.124;6.018;2023-07-16T02:20:03;10.43;;;2.45;;
47599;SDS011;33323;52.124;6.018;2023-07-16T02:22:35;5.78;;;2.35;;
47599;SDS011;33323;52.124;6.018;2023-07-16T02:25:02;9.52;;;2.55;;
47599;SDS011;33323;52.124;6.018;2023-07-16T02:27:30;6.10;;;1.95;;
47599;SDS011;33323;52.124;6.018;2023-07-16T02:29:57;7.05;;;2.10;;
47599;SDS011;33323;52.124;6.018;2023-07-16T02:32:24;3.58;;;1.75;;
47599;SDS011;33323;52.124;6.018;2023-07-16T02:34:51;11.25;;;2.55;;
47599;SDS011;33323;52.124;6.018;2023-07-16T02:37:18;10.02;;;2.47;;
47599;SDS011;33323;52.124;6.018;2023-07-16T02:39:45;6.18;;;2.25;;
47599;SDS011;33323;52.124;6.018;2023-07-16T02:42:14;6.78;;;2.28;;
47599;SDS011;33323;52.124;6.018;2023-07-16T02:44:43;7.00;;;2.15;;
47599;SDS011;33323;52.124;6.018;2023-07-16T02:47:11;6.50;;;2.03;;
47599;SDS011;33323;52.124;6.018;2023-07-16T02:49:39;7.72;;;2.45;;
47599;SDS011;33323;52.124;6.018;2023-07-16T02:52:06;7.22;;;2.05;;
47599;SDS011;33323;52.124;6.018;2023-07-16T02:54:35;5.25;;;1.85;;
47599;SDS011;33323;52.124;6.018;2023-07-16T02:57:03;5.55;;;2.10;;
47599;SDS011;33323;52.124;6.018;2023-07-16T02:59:31;10.05;;;2.35;;
47599;SDS011;33323;52.124;6.018;2023-07-16T03:01:58;5.07;;;2.28;;
47599;SDS011;33323;52.124;6.018;2023-07-16T03:04:25;4.93;;;2.30;;
47599;SDS011;33323;52.124;6.018;2023-07-16T03:06:52;9.73;;;2.50;;
47599;SDS011;33323;52.124;6.018;2023-07-16T03:09:21;8.45;;;2.58;;
47599;SDS011;33323;52.124;6.018;2023-07-16T03:11:48;11.85;;;2.35;;
47599;SDS011;33323;52.124;6.018;2023-07-16T03:14:17;8.85;;;1.90;;
47599;SDS011;33323;52.124;6.018;2023-07-16T03:16:44;7.68;;;2.58;;
47599;SDS011;33323;52.124;6.018;2023-07-16T03:19:11;6.43;;;2.40;;
47599;SDS011;33323;52.124;6.018;2023-07-16T03:21:38;5.95;;;2.30;;
47599;SDS011;33323;52.124;6.018;2023-07-16T03:24:05;6.80;;;3.08;;
47599;SDS011;33323;52.124;6.018;2023-07-16T03:26:32;6.70;;;2.33;;
47599;SDS011;33323;52.124;6.018;2023-07-16T03:28:59;6.75;;;2.42;;
47599;SDS011;33323;52.124;6.018;2023-07-16T03:31:27;9.30;;;2.40;;
47599;SDS011;33323;52.124;6.018;2023-07-16T03:33:55;4.85;;;2.13;;
47599;SDS011;33323;52.124;6.018;2023-07-16T03:36:26;8.40;;;2.38;;
47599;SDS011;33323;52.124;6.018;2023-07-16T03:38:52;7.18;;;2.33;;
47599;SDS011;33323;52.124;6.018;2023-07-16T03:41:19;7.03;;;2.13;;
47599;SDS011;33323;52.124;6.018;2023-07-16T03:43:47;6.65;;;2.08;;
47599;SDS011;33323;52.124;6.018;2023-07-16T03:46:17;5.47;;;2.00;;
47599;SDS011;33323;52.124;6.018;2023-07-16T03:48:44;9.48;;;1.90;;
47599;SDS011;33323;52.124;6.018;2023-07-16T03:51:12;6.78;;;2.17;;
47599;SDS011;33323;52.124;6.018;2023-07-16T03:53:39;5.07;;;2.53;;
47599;SDS011;33323;52.124;6.018;2023-07-16T03:56:06;9.95;;;3.30;;
47599;SDS011;33323;52.124;6.018;2023-07-16T03:58:34;8.90;;;2.53;;
47599;SDS011;33323;52.124;6.018;2023-07-16T04:01:04;3.45;;;2.08;;
47599;SDS011;33323;52.124;6.018;2023-07-16T04:03:31;5.38;;;2.72;;
47599;SDS011;33323;52.124;6.018;2023-07-16T04:06:02;5.57;;;2.58;;
47599;SDS011;33323;52.124;6.018;2023-07-16T04:08:35;6.57;;;2.00;;
47599;SDS011;33323;52.124;6.018;2023-07-16T04:11:04;6.22;;;2.25;;
47599;SDS011;33323;52.124;6.018;2023-07-16T04:13:32;7.03;;;2.50;;
47599;SDS011;33323;52.124;6.018;2023-07-16T04:15:59;7.20;;;2.90;;
47599;SDS011;33323;52.124;6.018;2023-07-16T04:18:26;7.70;;;2.38;;
47599;SDS011;33323;52.124;6.018;2023-07-16T04:20:53;8.05;;;2.53;;
47599;SDS011;33323;52.124;6.018;2023-07-16T04:23:22;6.25;;;2.03;;
47599;SDS011;33323;52.124;6.018;2023-07-16T04:25:52;6.63;;;2.58;;
47599;SDS011;33323;52.124;6.018;2023-07-16T04:28:21;4.93;;;2.80;;
47599;SDS011;33323;52.124;6.018;2023-07-16T04:30:48;7.07;;;3.33;;
47599;SDS011;33323;52.124;6.018;2023-07-16T04:33:15;5.38;;;2.25;;
47599;SDS011;33323;52.124;6.018;2023-07-16T04:35:43;5.00;;;2.47;;
47599;SDS011;33323;52.124;6.018;2023-07-16T04:38:10;8.80;;;2.00;;
47599;SDS011;33323;52.124;6.018;2023-07-16T04:40:37;6.53;;;2.70;;
47599;SDS011;33323;52.124;6.018;2023-07-16T04:43:04;6.60;;;2.63;;
47599;SDS011;33323;52.124;6.018;2023-07-16T04:45:31;6.75;;;2.58;;
47599;SDS011;33323;52.124;6.018;2023-07-16T04:47:58;5.55;;;2.25;;
47599;SDS011;33323;52.124;6.018;2023-07-16T04:50:25;4.03;;;2.05;;
47599;SDS011;33323;52.124;6.018;2023-07-16T04:52:52;4.60;;;2.03;;
47599;SDS011;33323;52.124;6.018;2023-07-16T04:55:19;5.68;;;1.85;;
47599;SDS011;33323;52.124;6.018;2023-07-16T04:57:46;8.13;;;2.65;;
47599;SDS011;33323;52.124;6.018;2023-07-16T05:00:13;5.43;;;2.45;;
47599;SDS011;33323;52.124;6.018;2023-07-16T05:02:40;8.15;;;2.08;;
47599;SDS011;33323;52.124;6.018;2023-07-16T05:05:08;4.55;;;2.10;;
47599;SDS011;33323;52.124;6.018;2023-07-16T05:07:35;6.45;;;2.63;;
47599;SDS011;33323;52.124;6.018;2023-07-16T05:10:02;5.82;;;2.80;;
47599;SDS011;33323;52.124;6.018;2023-07-16T05:12:29;5.45;;;2.00;;
47599;SDS011;33323;52.124;6.018;2023-07-16T05:14:56;8.50;;;3.17;;
47599;SDS011;33323;52.124;6.018;2023-07-16T05:17:23;5.40;;;2.80;;
47599;SDS011;33323;52.124;6.018;2023-07-16T05:19:50;6.47;;;2.63;;
47599;SDS011;33323;52.124;6.018;2023-07-16T05:22:18;6.35;;;2.40;;
47599;SDS011;33323;52.124;6.018;2023-07-16T05:24:45;4.65;;;2.30;;
47599;SDS011;33323;52.124;6.018;2023-07-16T05:27:12;6.53;;;2.60;;
47599;SDS011;33323;52.124;6.018;2023-07-16T05:29:39;7.32;;;3.05;;
47599;SDS011;33323;52.124;6.018;2023-07-16T05:32:06;4.35;;;2.38;;
47599;SDS011;33323;52.124;6.018;2023-07-16T05:34:33;8.32;;;3.08;;
47599;SDS011;33323;52.124;6.018;2023-07-16T05:37:00;10.32;;;3.00;;
47599;SDS011;33323;52.124;6.018;2023-07-16T05:39:27;10.07;;;3.47;;
47599;SDS011;33323;52.124;6.018;2023-07-16T05:41:54;4.80;;;2.63;;
47599;SDS011;33323;52.124;6.018;2023-07-16T05:44:21;5.05;;;2.42;;
47599;SDS011;33323;52.124;6.018;2023-07-16T05:46:48;11.60;;;3.35;;
47599;SDS011;33323;52.124;6.018;2023-07-16T05:49:15;4.82;;;2.22;;
47599;SDS011;33323;52.124;6.018;2023-07-16T05:51:42;6.03;;;2.80;;
47599;SDS011;33323;52.124;6.018;2023-07-16T05:54:09;5.15;;;2.58;;
47599;SDS011;33323;52.124;6.018;2023-07-16T05:56:37;6.88;;;3.95;;
47599;SDS011;33323;52.124;6.018;2023-07-16T05:59:04;7.47;;;3.90;;
47599;SDS011;33323;52.124;6.018;2023-07-16T06:01:31;7.55;;;2.67;;
47599;SDS011;33323;52.124;6.018;2023-07-16T06:03:58;6.28;;;2.90;;
47599;SDS011;33323;52.124;6.018;2023-07-16T06:06:28;10.45;;;2.80;;
47599;SDS011;33323;52.124;6.018;2023-07-16T06:08:56;9.45;;;2.45;;
47599;SDS011;33323;52.124;6.018;2023-07-16T06:11:23;12.88;;;4.30;;
47599;SDS011;33323;52.124;6.018;2023-07-16T06:13:53;18.55;;;4.40;;
47599;SDS011;33323;52.124;6.018;2023-07-16T06:16:21;5.47;;;2.90;;
47599;SDS011;33323;52.124;6.018;2023-07-16T06:18:48;4.72;;;2.95;;
47599;SDS011;33323;52.124;6.018;2023-07-16T06:21:15;6.05;;;2.75;;
47599;SDS011;33323;52.124;6.018;2023-07-16T06:23:42;6.18;;;3.17;;
47599;SDS011;33323;52.124;6.018;2023-07-16T06:26:10;9.77;;;3.13;;
47599;SDS011;33323;52.124;6.018;2023-07-16T06:28:37;6.68;;;2.78;;
47599;SDS011;33323;52.124;6.018;2023-07-16T06:31:04;12.00;;;3.53;;
47599;SDS011;33323;52.124;6.018;2023-07-16T06:33:31;10.57;;;3.25;;
47599;SDS011;33323;52.124;6.018;2023-07-16T06:35:58;4.95;;;2.65;;
47599;SDS011;33323;52.124;6.018;2023-07-16T06:38:25;11.57;;;3.83;;
47599;SDS011;33323;52.124;6.018;2023-07-16T06:40:55;8.48;;;3.45;;
47599;SDS011;33323;52.124;6.018;2023-07-16T06:43:22;5.60;;;2.90;;
47599;SDS011;33323;52.124;6.018;2023-07-16T06:45:49;7.70;;;3.22;;
47599;SDS011;33323;52.124;6.018;2023-07-16T06:48:19;8.35;;;3.13;;
47599;SDS011;33323;52.124;6.018;2023-07-16T06:50:46;8.60;;;2.50;;
47599;SDS011;33323;52.124;6.018;2023-07-16T06:53:13;6.18;;;3.47;;
47599;SDS011;33323;52.124;6.018;2023-07-16T06:55:40;13.93;;;4.95;;
47599;SDS011;33323;52.124;6.018;2023-07-16T06:58:10;7.35;;;3.42;;
47599;SDS011;33323;52.124;6.018;2023-07-16T07:00:37;7.32;;;3.30;;
47599;SDS011;33323;52.124;6.018;2023-07-16T07:03:04;4.68;;;2.70;;
47599;SDS011;33323;52.124;6.018;2023-07-16T07:05:32;10.43;;;3.08;;
47599;SDS011;33323;52.124;6.018;2023-07-16T07:07:59;9.50;;;3.42;;
47599;SDS011;33323;52.124;6.018;2023-07-16T07:10:26;5.57;;;2.53;;
47599;SDS011;33323;52.124;6.018;2023-07-16T07:12:53;5.93;;;3.00;;
47599;SDS011;33323;52.124;6.018;2023-07-16T07:15:20;7.22;;;3.45;;
47599;SDS011;33323;52.124;6.018;2023-07-16T07:17:47;8.15;;;3.08;;
47599;SDS011;33323;52.124;6.018;2023-07-16T07:20:15;4.10;;;2.67;;
47599;SDS011;33323;52.124;6.018;2023-07-16T07:22:42;11.32;;;3.55;;
47599;SDS011;33323;52.124;6.018;2023-07-16T07:25:09;6.85;;;3.22;;
47599;SDS011;33323;52.124;6.018;2023-07-16T07:27:36;5.78;;;3.17;;
47599;SDS011;33323;52.124;6.018;2023-07-16T07:30:04;10.20;;;3.40;;
47599;SDS011;33323;52.124;6.018;2023-07-16T07:32:31;5.60;;;2.83;;
47599;SDS011;33323;52.124;6.018;2023-07-16T07:34:59;9.25;;;4.47;;
47599;SDS011;33323;52.124;6.018;2023-07-16T07:37:29;7.00;;;3.13;;
47599;SDS011;33323;52.124;6.018;2023-07-16T07:39:58;9.25;;;3.10;;
47599;SDS011;33323;52.124;6.018;2023-07-16T07:42:25;14.02;;;4.20;;
47599;SDS011;33323;52.124;6.018;2023-07-16T07:44:56;7.72;;;3.67;;
47599;SDS011;33323;52.124;6.018;2023-07-16T07:47:23;10.68;;;2.95;;
47599;SDS011;33323;52.124;6.018;2023-07-16T07:49:51;7.97;;;3.42;;
47599;SDS011;33323;52.124;6.018;2023-07-16T07:52:19;7.13;;;3.70;;
47599;SDS011;33323;52.124;6.018;2023-07-16T07:54:46;12.02;;;3.05;;
47599;SDS011;33323;52.124;6.018;2023-07-16T07:57:13;9.70;;;3.70;;
47599;SDS011;33323;52.124;6.018;2023-07-16T07:59:43;4.18;;;3.25;;
47599;SDS011;33323;52.124;6.018;2023-07-16T08:02:11;10.18;;;3.45;;
47599;SDS011;33323;52.124;6.018;2023-07-16T08:04:38;11.25;;;3.40;;
47599;SDS011;33323;52.124;6.018;2023-07-16T08:07:05;6.97;;;2.92;;
47599;SDS011;33323;52.124;6.018;2023-07-16T08:09:32;9.40;;;3.40;;
47599;SDS011;33323;52.124;6.018;2023-07-16T08:11:59;6.60;;;3.85;;
47599;SDS011;33323;52.124;6.018;2023-07-16T08:14:26;8.98;;;3.42;;
47599;SDS011;33323;52.124;6.018;2023-07-16T08:16:55;8.60;;;3.25;;
47599;SDS011;33323;52.124;6.018;2023-07-16T08:19:22;7.47;;;2.95;;
47599;SDS011;33323;52.124;6.018;2023-07-16T08:21:49;5.75;;;3.17;;
47599;SDS011;33323;52.124;6.018;2023-07-16T08:24:16;7.70;;;3.95;;
47599;SDS011;33323;52.124;6.018;2023-07-16T08:26:43;3.60;;;2.63;;
47599;SDS011;33323;52.124;6.018;2023-07-16T08:29:11;10.35;;;2.97;;
47599;SDS011;33323;52.124;6.018;2023-07-16T08:31:38;15.07;;;4.55;;
47599;SDS011;33323;52.124;6.018;2023-07-16T08:34:05;8.18;;;3.80;;
47599;SDS011;33323;52.124;6.018;2023-07-16T08:36:32;7.75;;;3.65;;
47599;SDS011;33323;52.124;6.018;2023-07-16T08:39:00;10.30;;;3.45;;
47599;SDS011;33323;52.124;6.018;2023-07-16T08:41:27;7.25;;;2.83;;
47599;SDS011;33323;52.124;6.018;2023-07-16T08:43:55;7.65;;;3.72;;
47599;SDS011;33323;52.124;6.018;2023-07-16T08:46:23;9.18;;;3.50;;
47599;SDS011;33323;52.124;6.018;2023-07-16T08:48:51;5.78;;;2.95;;
47599;SDS011;33323;52.124;6.018;2023-07-16T08:51:19;8.63;;;3.70;;
47599;SDS011;33323;52.124;6.018;2023-07-16T08:53:48;10.48;;;3.90;;
47599;SDS011;33323;52.124;6.018;2023-07-16T08:56:15;11.77;;;4.07;;
47599;SDS011;33323;52.124;6.018;2023-07-16T08:58:43;6.30;;;3.20;;
47599;SDS011;33323;52.124;6.018;2023-07-16T09:01:11;13.30;;;3.72;;
47599;SDS011;33323;52.124;6.018;2023-07-16T09:03:39;7.38;;;3.78;;
47599;SDS011;33323;52.124;6.018;2023-07-16T09:06:07;10.00;;;4.10;;
47599;SDS011;33323;52.124;6.018;2023-07-16T09:08:34;11.30;;;4.63;;
47599;SDS011;33323;52.124;6.018;2023-07-16T09:11:01;8.57;;;3.22;;
47599;SDS011;33323;52.124;6.018;2023-07-16T09:13:28;6.20;;;2.90;;
47599;SDS011;33323;52.124;6.018;2023-07-16T09:15:57;17.63;;;4.18;;
47599;SDS011;33323;52.124;6.018;2023-07-16T09:18:25;11.07;;;4.20;;
47599;SDS011;33323;52.124;6.018;2023-07-16T09:20:55;9.07;;;4.32;;
47599;SDS011;33323;52.124;6.018;2023-07-16T09:23:29;8.90;;;3.85;;
47599;SDS011;33323;52.124;6.018;2023-07-16T09:25:57;6.57;;;3.65;;
47599;SDS011;33323;52.124;6.018;2023-07-16T09:28:24;7.88;;;3.45;;
47599;SDS011;33323;52.124;6.018;2023-07-16T09:30:52;8.63;;;3.30;;
47599;SDS011;33323;52.124;6.018;2023-07-16T09:33:20;5.82;;;2.80;;
47599;SDS011;33323;52.124;6.018;2023-07-16T09:35:49;9.13;;;4.85;;
47599;SDS011;33323;52.124;6.018;2023-07-16T09:38:17;9.10;;;3.60;;
47599;SDS011;33323;52.124;6.018;2023-07-16T09:40:45;10.63;;;4.20;;
47599;SDS011;33323;52.124;6.018;2023-07-16T09:43:12;8.52;;;3.40;;
47599;SDS011;33323;52.124;6.018;2023-07-16T09:45:40;8.70;;;3.38;;
47599;SDS011;33323;52.124;6.018;2023-07-16T09:48:08;12.13;;;3.30;;
47599;SDS011;33323;52.124;6.018;2023-07-16T09:50:36;11.20;;;3.75;;
47599;SDS011;33323;52.124;6.018;2023-07-16T09:53:04;11.48;;;3.92;;
47599;SDS011;33323;52.124;6.018;2023-07-16T09:55:34;6.72;;;3.80;;
47599;SDS011;33323;52.124;6.018;2023-07-16T09:58:04;9.75;;;3.75;;
47599;SDS011;33323;52.124;6.018;2023-07-16T10:00:35;9.93;;;3.58;;
47599;SDS011;33323;52.124;6.018;2023-07-16T10:03:05;10.65;;;4.40;;
47599;SDS011;33323;52.124;6.018;2023-07-16T10:05:37;15.23;;;3.67;;
47599;SDS011;33323;52.124;6.018;2023-07-16T10:08:05;10.07;;;3.70;;
47599;SDS011;33323;52.124;6.018;2023-07-16T10:10:48;6.60;;;3.10;;
47599;SDS011;33323;52.124;6.018;2023-07-16T10:13:21;5.88;;;3.35;;
47599;SDS011;33323;52.124;6.018;2023-07-16T10:15:51;7.28;;;4.05;;
47599;SDS011;33323;52.124;6.018;2023-07-16T10:18:32;6.53;;;2.88;;
47599;SDS011;33323;52.124;6.018;2023-07-16T10:21:04;5.57;;;3.42;;
47599;SDS011;33323;52.124;6.018;2023-07-16T10:23:42;6.00;;;4.27;;
47599;SDS011;33323;52.124;6.018;2023-07-16T10:28:44;7.07;;;3.65;;
47599;SDS011;33323;52.124;6.018;2023-07-16T10:31:23;9.35;;;3.90;;
47599;SDS011;33323;52.124;6.018;2023-07-16T10:33:57;4.35;;;2.78;;
47599;SDS011;33323;52.124;6.018;2023-07-16T10:36:38;7.72;;;3.65;;
47599;SDS011;33323;52.124;6.018;2023-07-16T10:39:06;8.00;;;3.40;;
47599;SDS011;33323;52.124;6.018;2023-07-16T10:41:34;7.10;;;3.95;;
47599;SDS011;33323;52.124;6.018;2023-07-16T10:44:01;6.72;;;2.88;;
47599;SDS011;33323;52.124;6.018;2023-07-16T10:46:28;7.78;;;3.22;;
47599;SDS011;33323;52.124;6.018;2023-07-16T10:48:59;6.78;;;3.53;;
47599;SDS011;33323;52.124;6.018;2023-07-16T10:51:27;8.35;;;2.67;;
47599;SDS011;33323;52.124;6.018;2023-07-16T10:53:55;7.68;;;3.40;;
47599;SDS011;33323;52.124;6.018;2023-07-16T10:56:23;7.30;;;3.45;;
47599;SDS011;33323;52.124;6.018;2023-07-16T10:58:51;5.63;;;3.20;;
47599;SDS011;33323;52.124;6.018;2023-07-16T11:01:18;8.77;;;3.00;;
47599;SDS011;33323;52.124;6.018;2023-07-16T11:03:46;4.55;;;2.85;;
47599;SDS011;33323;52.124;6.018;2023-07-16T11:06:13;7.68;;;2.97;;
47599;SDS011;33323;52.124;6.018;2023-07-16T11:08:42;4.85;;;2.63;;
47599;SDS011;33323;52.124;6.018;2023-07-16T11:11:09;5.47;;;2.70;;
47599;SDS011;33323;52.124;6.018;2023-07-16T11:13:36;10.63;;;3.65;;
47599;SDS011;33323;52.124;6.018;2023-07-16T11:16:07;5.78;;;3.38;;
47599;SDS011;33323;52.124;6.018;2023-07-16T11:18:35;5.68;;;3.28;;
47599;SDS011;33323;52.124;6.018;2023-07-16T11:21:03;9.02;;;2.95;;
47599;SDS011;33323;52.124;6.018;2023-07-16T11:23:33;8.18;;;3.10;;
47599;SDS011;33323;52.124;6.018;2023-07-16T11:26:02;6.18;;;2.85;;
47599;SDS011;33323;52.124;6.018;2023-07-16T11:28:40;5.90;;;2.40;;
47599;SDS011;33323;52.124;6.018;2023-07-16T11:31:13;5.75;;;3.10;;
47599;SDS011;33323;52.124;6.018;2023-07-16T11:33:45;8.20;;;3.00;;
47599;SDS011;33323;52.124;6.018;2023-07-16T11:36:13;7.60;;;2.97;;
47599;SDS011;33323;52.124;6.018;2023-07-16T11:38:41;6.00;;;3.28;;
47599;SDS011;33323;52.124;6.018;2023-07-16T11:41:09;7.00;;;2.63;;
47599;SDS011;33323;52.124;6.018;2023-07-16T11:43:36;6.65;;;3.30;;
47599;SDS011;33323;52.124;6.018;2023-07-16T11:46:05;9.60;;;2.90;;
47599;SDS011;33323;52.124;6.018;2023-07-16T11:48:42;4.63;;;2.83;;
47599;SDS011;33323;52.124;6.018;2023-07-16T11:51:10;6.15;;;2.72;;
47599;SDS011;33323;52.124;6.018;2023-07-16T11:53:37;6.53;;;3.35;;
47599;SDS011;33323;52.124;6.018;2023-07-16T11:56:05;5.50;;;2.80;;
47599;SDS011;33323;52.124;6.018;2023-07-16T11:58:33;5.55;;;3.00;;
47599;SDS011;33323;52.124;6.018;2023-07-16T12:01:00;9.07;;;3.40;;
47599;SDS011;33323;52.124;6.018;2023-07-16T12:03:27;7.35;;;3.00;;
47599;SDS011;33323;52.124;6.018;2023-07-16T12:05:54;5.70;;;2.85;;
47599;SDS011;33323;52.124;6.018;2023-07-16T12:08:21;8.82;;;4.15;;
47599;SDS011;33323;52.124;6.018;2023-07-16T12:10:48;5.63;;;3.00;;
47599;SDS011;33323;52.124;6.018;2023-07-16T12:13:16;5.40;;;2.70;;
47599;SDS011;33323;52.124;6.018;2023-07-16T12:15:43;8.27;;;3.20;;
47599;SDS011;33323;52.124;6.018;2023-07-16T12:18:10;6.32;;;3.45;;
47599;SDS011;33323;52.124;6.018;2023-07-16T12:20:37;9.30;;;2.95;;
47599;SDS011;33323;52.124;6.018;2023-07-16T12:23:04;6.65;;;2.80;;
47599;SDS011;33323;52.124;6.018;2023-07-16T12:25:32;9.45;;;2.90;;
47599;SDS011;33323;52.124;6.018;2023-07-16T12:28:00;8.27;;;2.45;;
47599;SDS011;33323;52.124;6.018;2023-07-16T12:30:28;5.53;;;3.33;;
47599;SDS011;33323;52.124;6.018;2023-07-16T12:32:55;6.07;;;2.55;;
47599;SDS011;33323;52.124;6.018;2023-07-16T12:35:23;8.38;;;3.25;;
47599;SDS011;33323;52.124;6.018;2023-07-16T12:37:50;8.45;;;2.90;;
47599;SDS011;33323;52.124;6.018;2023-07-16T12:40:17;10.55;;;2.72;;
47599;SDS011;33323;52.124;6.018;2023-07-16T12:42:44;4.25;;;2.67;;
47599;SDS011;33323;52.124;6.018;2023-07-16T12:45:11;8.23;;;3.35;;
47599;SDS011;33323;52.124;6.018;2023-07-16T12:47:39;8.18;;;3.03;;
47599;SDS011;33323;52.124;6.018;2023-07-16T12:50:07;5.78;;;2.92;;
47599;SDS011;33323;52.124;6.018;2023-07-16T12:52:34;7.85;;;2.60;;
47599;SDS011;33323;52.124;6.018;2023-07-16T12:55:02;7.20;;;2.88;;
47599;SDS011;33323;52.124;6.018;2023-07-16T12:57:29;7.68;;;3.30;;
47599;SDS011;33323;52.124;6.018;2023-07-16T12:59:56;5.80;;;2.55;;
47599;SDS011;33323;52.124;6.018;2023-07-16T13:02:23;7.90;;;2.90;;
47599;SDS011;33323;52.124;6.018;2023-07-16T13:04:51;5.55;;;2.80;;
47599;SDS011;33323;52.124;6.018;2023-07-16T13:07:18;5.38;;;2.65;;
47599;SDS011;33323;52.124;6.018;2023-07-16T13:09:45;4.15;;;2.40;;
47599;SDS011;33323;52.124;6.018;2023-07-16T13:12:12;4.93;;;2.10;;
47599;SDS011;33323;52.124;6.018;2023-07-16T13:14:39;5.28;;;1.98;;
47599;SDS011;33323;52.124;6.018;2023-07-16T13:17:06;4.68;;;1.85;;
47599;SDS011;33323;52.124;6.018;2023-07-16T13:19:33;4.03;;;2.20;;
47599;SDS011;33323;52.124;6.018;2023-07-16T13:22:00;3.40;;;2.17;;
47599;SDS011;33323;52.124;6.018;2023-07-16T13:24:27;9.20;;;2.22;;
47599;SDS011;33323;52.124;6.018;2023-07-16T13:26:54;3.08;;;2.20;;
47599;SDS011;33323;52.124;6.018;2023-07-16T13:29:21;5.47;;;1.95;;
47599;SDS011;33323;52.124;6.018;2023-07-16T13:31:48;4.43;;;2.50;;
47599;SDS011;33323;52.124;6.018;2023-07-16T13:34:16;8.27;;;2.47;;
47599;SDS011;33323;52.124;6.018;2023-07-16T13:36:43;4.50;;;2.72;;
47599;SDS011;33323;52.124;6.018;2023-07-16T13:39:10;5.88;;;2.40;;
47599;SDS011;33323;52.124;6.018;2023-07-16T13:41:39;5.93;;;2.33;;
47599;SDS011;33323;52.124;6.018;2023-07-16T13:44:06;6.47;;;2.80;;
47599;SDS011;33323;52.124;6.018;2023-07-16T13:46:35;5.72;;;2.53;;
47599;SDS011;33323;52.124;6.018;2023-07-16T13:49:04;4.95;;;2.42;;
47599;SDS011;33323;52.124;6.018;2023-07-16T13:51:31;9.52;;;3.58;;
47599;SDS011;33323;52.124;6.018;2023-07-16T13:53:58;6.75;;;2.95;;
47599;SDS011;33323;52.124;6.018;2023-07-16T13:56:25;4.80;;;2.25;;
47599;SDS011;33323;52.124;6.018;2023-07-16T13:58:52;5.47;;;2.50;;
47599;SDS011;33323;52.124;6.018;2023-07-16T14:01:21;3.83;;;1.58;;
47599;SDS011;33323;52.124;6.018;2023-07-16T14:03:49;4.00;;;2.22;;
47599;SDS011;33323;52.124;6.018;2023-07-16T14:06:16;5.75;;;2.38;;
47599;SDS011;33323;52.124;6.018;2023-07-16T14:08:44;4.45;;;2.42;;
47599;SDS011;33323;52.124;6.018;2023-07-16T14:11:11;2.28;;;1.45;;
47599;SDS011;33323;52.124;6.018;2023-07-16T14:13:38;3.55;;;1.52;;
47599;SDS011;33323;52.124;6.018;2023-07-16T14:16:05;3.15;;;1.73;;
47599;SDS011;33323;52.124;6.018;2023-07-16T14:18:32;3.70;;;1.40;;
47599;SDS011;33323;52.124;6.018;2023-07-16T14:20:59;2.75;;;1.70;;
47599;SDS011;33323;52.124;6.018;2023-07-16T14:23:29;3.45;;;1.90;;
47599;SDS011;33323;52.124;6.018;2023-07-16T14:25:56;3.75;;;1.83;;
47599;SDS011;33323;52.124;6.018;2023-07-16T14:28:23;3.45;;;1.60;;
47599;SDS011;33323;52.124;6.018;2023-07-16T14:30:50;2.50;;;1.75;;
47599;SDS011;33323;52.124;6.018;2023-07-16T14:33:17;2.13;;;1.20;;
47599;SDS011;33323;52.124;6.018;2023-07-16T14:35:44;2.72;;;1.40;;
47599;SDS011;33323;52.124;6.018;2023-07-16T14:38:11;5.65;;;1.73;;
47599;SDS011;33323;52.124;6.018;2023-07-16T14:40:39;3.97;;;1.98;;
47599;SDS011;33323;52.124;6.018;2023-07-16T14:43:06;4.22;;;1.90;;
47599;SDS011;33323;52.124;6.018;2023-07-16T14:45:36;4.28;;;1.92;;
47599;SDS011;33323;52.124;6.018;2023-07-16T14:48:03;3.60;;;1.70;;
47599;SDS011;33323;52.124;6.018;2023-07-16T14:50:31;8.60;;;2.42;;
47599;SDS011;33323;52.124;6.018;2023-07-16T14:52:58;5.30;;;2.10;;
47599;SDS011;33323;52.124;6.018;2023-07-16T14:55:25;3.50;;;2.08;;
47599;SDS011;33323;52.124;6.018;2023-07-16T14:57:52;3.83;;;1.80;;
47599;SDS011;33323;52.124;6.018;2023-07-16T15:00:20;3.17;;;1.50;;